Rogersville, Alabama
Current Conditions -  °F | °C
As of 1:53 PM on Sunday 23 Nov 2014 (Local Time) from KMSL Reporting Station
Light Rain Light Rain  
Wind Chill: 59°   Ceiling: 3100
Heat Index: 59°   Visibility: 5mi
Dew Point: 56°   Wind: 13mph
Humidity: 90%   Direction: 130°SE
Pressure: 29.51"   Gusts: 24mph
Location:  34.83°N, 87.29°W
Report Text: KMSL 231953Z AUTO 13011G21KT 5SM -RA BR SCT011 BKN031 OVC100 15/13 A2951 RMK AO2 SLP988 P0014 T01500133
Loading
Personal Weather Stations






























Interactive Weather Map New forecast layout! Learn more

10-Day Weather Forecast

Advertisements
Track Severe Weather on mobile